Time;durP1;ratioP1;P1;durP2;ratioP2;P2;SDS_P1;SDS_P2;PMS_P1;PMS_P2;Temp;Humidity;BMP_temperature;BMP_pressure;BME280_temperature;BME280_humidity;BME280_pressure;Samples;Min_cycle;Max_cycle;Signal;HPM_P1;HPM_P2
2022/09/04 00:02:47;;;;;;;7.40;5.03;;;;;;;20.65;59.81;101245.72;5147088;28;20118;-80
2022/09/04 00:05:56;;;;;;;7.70;4.80;;;;;;;20.48;61.25;101240.22;5133016;29;20037;-80
2022/09/04 00:08:30;;;;;;;7.97;5.87;;;;;;;20.41;62.07;101247.09;5105600;29;20476;-80
2022/09/04 00:11:04;;;;;;;;;;;;;;;20.76;58.63;101248.19;5106925;29;20036;-80
2022/09/04 00:13:36;;;;;;;10.10;5.73;;;;;;;;;;5131077;28;20528;-80
2022/09/04 00:16:15;;;;;;;7.90;5.57;;;;;;;20.39;61.73;101259.69;5147242;29;20326;-80
2022/09/04 00:18:52;;;;;;;7.33;5.47;;;;;;;20.02;63.30;101266.69;5148409;28;20062;-80
2022/09/04 00:21:43;;;;;;;7.93;5.80;;;;;;;20.14;62.53;101254.09;5162062;28;20031;-80
2022/09/04 00:24:17;;;;;;;7.77;5.20;;;;;;;19.83;63.88;101261.25;5145998;28;20138;-80
2022/09/04 00:27:07;;;;;;;8.07;5.00;;;;;;;20.13;62.00;101255.91;5147479;28;20061;-80
2022/09/04 00:29:54;;;;;;;6.63;5.50;;;;;;;19.95;63.20;101253.97;5147704;28;20031;-80
2022/09/04 00:32:50;;;;;;;8.90;5.57;;;;;;;19.86;64.85;101270.78;5138981;28;20028;-80
2022/09/04 00:35:31;;;;;;;8.77;5.50;;;;;;;19.87;64.57;101261.81;5143359;29;20042;-80
2022/09/04 00:38:10;;;;;;;5.70;5.10;;;;;;;19.90;63.81;101266.00;5147241;29;20521;-80
2022/09/04 00:41:00;;;;;;;6.77;5.37;;;;;;;19.98;63.81;101266.13;5148414;28;20373;-80
2022/09/04 00:43:48;;;;;;;5.53;4.50;;;;;;;19.74;64.28;101256.78;5146430;29;20039;-80
2022/09/04 00:46:31;;;;;;;7.50;5.13;;;;;;;19.73;65.06;101259.59;5147875;28;20086;-80
2022/09/04 00:49:15;;;;;;;11.87;4.97;;;;;;;19.94;63.79;101270.06;5145936;29;20111;-80
2022/09/04 00:52:23;;;;;;;5.77;4.60;;;;;;;19.83;63.91;101266.56;5148016;29;20039;-79
2022/09/04 00:55:03;;;;;;;7.37;5.57;;;;;;;19.95;63.83;101274.38;5139713;29;20086;-80
2022/09/04 00:58:06;;;;;;;7.10;5.40;;;;;;;19.78;64.68;101276.78;5147730;29;20581;-80
2022/09/04 01:00:37;;;;;;;7.73;4.00;;;;;;;19.69;65.11;101275.84;5136425;29;20188;-80
2022/09/04 01:03:26;;;;;;;8.73;4.60;;;;;;;19.88;64.16;101278.63;5147728;28;20097;-79
2022/09/04 01:06:19;;;;;;;5.30;4.20;;;;;;;19.79;64.29;101278.47;5146231;29;20051;-80
2022/09/04 01:09:02;;;;;;;9.37;4.07;;;;;;;19.56;65.68;101277.94;5146539;29;20035;-80
2022/09/04 01:12:00;;;;;;;5.67;4.30;;;;;;;19.54;65.37;101285.22;5147601;29;20118;-79
2022/09/04 01:14:54;;;;;;;8.53;4.37;;;;;;;19.66;65.13;101288.56;5145234;29;20059;-79
2022/09/04 01:17:48;;;;;;;7.97;5.20;;;;;;;19.56;66.05;101293.88;5146428;28;20106;-80
2022/09/04 01:20:34;;;;;;;7.50;4.57;;;;;;;19.29;67.90;101300.72;5147518;28;20053;-80
2022/09/04 01:23:23;;;;;;;5.83;4.50;;;;;;;19.42;67.26;101305.78;5147846;28;20491;-80
2022/09/04 01:26:18;;;;;;;6.50;3.93;;;;;;;19.32;66.91;101306.59;5147294;28;20035;-79
2022/09/04 01:28:57;;;;;;;5.67;4.03;;;;;;;19.33;66.71;101308.28;5147648;28;20039;-80
2022/09/04 01:31:47;;;;;;;7.40;4.20;;;;;;;19.40;67.14;101307.72;5144758;28;20033;-80
2022/09/04 01:34:38;;;;;;;8.10;4.17;;;;;;;19.13;68.40;101312.72;5146449;28;20424;-80
2022/09/04 01:37:26;;;;;;;8.03;4.00;;;;;;;19.36;66.86;101309.00;5150249;28;20035;-80
2022/09/04 01:40:34;;;;;;;8.87;4.30;;;;;;;19.51;66.46;101314.72;5151049;28;20623;-80
2022/09/04 01:43:12;;;;;;;5.20;4.70;;;;;;;19.18;68.00;101312.31;5151335;28;20038;-80
2022/09/04 01:46:03;;;;;;;6.20;4.37;;;;;;;19.48;66.87;101315.00;5148430;29;20035;-80
2022/09/04 01:49:01;;;;;;;5.90;3.93;;;;;;;19.10;68.08;101319.13;5149836;29;20462;-80
2022/09/04 01:51:47;;;;;;;6.03;4.43;;;;;;;19.28;68.11;101315.84;5149260;28;20403;-80
2022/09/04 01:54:43;;;;;;;5.63;4.43;;;;;;;19.30;67.53;101323.66;5150201;28;20572;-80
2022/09/04 01:57:33;;;;;;;7.00;3.80;;;;;;;19.27;67.57;101324.75;5150809;29;20047;-81
2022/09/04 02:00:14;;;;;;;5.97;4.20;;;;;;;19.04;70.29;101322.31;5151232;29;20039;-79
2022/09/04 02:03:03;;;;;;;6.13;4.43;;;;;;;19.16;70.21;101330.19;5149567;28;20493;-79
2022/09/04 02:06:04;;;;;;;6.27;4.70;;;;;;;19.28;68.32;101334.41;5151188;28;20406;-81
2022/09/04 02:09:17;;;;;;;6.47;4.63;;;;;;;19.11;69.26;101327.97;5151235;28;20554;-80
2022/09/04 02:12:02;;;;;;;8.50;4.87;;;;;;;18.96;70.10;101324.81;5147117;29;20554;-80
2022/09/04 02:14:41;;;;;;;5.55;4.25;;;;;;;18.90;71.18;101338.63;5149095;29;21156;-79
2022/09/04 02:17:23;;;;;;;6.03;5.33;;;;;;;18.89;72.55;101334.28;5150355;28;20062;-79
2022/09/04 02:20:07;;;;;;;4.77;4.00;;;;;;;18.94;71.96;101345.31;5148762;28;20402;-79
2022/09/04 02:22:48;;;;;;;5.75;4.75;;;;;;;18.81;72.75;101345.56;5150584;28;20066;-79
2022/09/04 02:25:34;;;;;;;5.57;4.93;;;;;;;18.86;71.75;101338.06;5148642;28;20528;-79
2022/09/04 02:28:16;;;;;;;7.77;5.20;;;;;;;18.97;70.87;101345.09;5151045;28;20066;-79
2022/09/04 02:30:55;;;;;;;7.20;4.67;;;;;;;18.68;73.36;101351.94;5149911;28;20398;-79
2022/09/04 02:33:51;;;;;;;7.93;5.63;;;;;;;18.82;72.60;101349.91;5162211;28;20034;-80
2022/09/04 02:36:39;;;;;;;5.63;4.73;;;;;;;18.79;72.89;101351.03;5150114;28;20098;-80
2022/09/04 02:39:29;;;;;;;7.37;4.90;;;;;;;18.74;73.13;101351.44;5150731;28;20043;-79
2022/09/04 02:42:31;;;;;;;6.83;4.77;;;;;;;18.62;74.95;101361.28;5150542;29;20023;-80
2022/09/04 02:45:35;;;;;;;6.20;5.60;;;;;;;18.69;73.89;101358.09;5141239;29;20558;-80
2022/09/04 02:48:27;;;;;;;9.52;4.90;;;;;;;18.88;72.63;101369.75;5129819;29;20036;-80
2022/09/04 02:51:12;;;;;;;7.60;5.33;;;;;;;18.53;76.46;101364.75;5149666;29;20548;-80
2022/09/04 02:54:23;;;;;;;6.53;5.27;;;;;;;18.78;74.64;101373.22;5148942;28;20078;-80
2022/09/04 02:57:26;;;;;;;6.70;5.47;;;;;;;18.77;74.62;101365.38;5147637;29;20506;-80
2022/09/04 03:00:07;;;;;;;6.87;5.17;;;;;;;18.53;78.07;101375.34;5149822;28;20039;-79
2022/09/04 03:03:05;;;;;;;10.20;5.73;;;;;;;18.80;74.84;101373.91;5147469;28;20027;-80
2022/09/04 03:05:55;;;;;;;8.27;5.23;;;;;;;18.51;78.46;101377.28;5149672;28;20031;-80
2022/09/04 03:08:36;;;;;;;6.07;5.47;;;;;;;18.47;78.52;101368.75;5149707;28;20039;-80
2022/09/04 03:11:18;;;;;;;7.03;6.00;;;;;;;18.65;77.37;101370.78;5148127;28;20043;-80
2022/09/04 03:14:05;;;;;;;9.87;5.50;;;;;;;18.55;77.88;101372.56;5149098;28;20130;-80
2022/09/04 03:16:44;;;;;;;6.00;5.40;;;;;;;18.56;78.09;101374.22;5149160;28;20117;-79
2022/09/04 03:19:39;;;;;;;6.27;5.30;;;;;;;18.60;77.37;101375.66;5148083;28;20058;-79
2022/09/04 03:23:03;;;;;;;6.30;5.70;;;;;;;18.42;80.34;101383.38;5149357;28;20042;-80
2022/09/04 03:25:58;;;;;;;7.03;5.67;;;;;;;18.52;77.73;101376.31;5133244;28;20047;-79
2022/09/04 03:28:40;;;;;;;8.10;5.25;;;;;;;18.32;81.03;101378.84;5148443;29;20031;-79
2022/09/04 03:31:46;;;;;;;7.90;5.27;;;;;;;18.47;79.18;101382.00;5133501;28;20035;-79
2022/09/04 03:34:27;;;;;;;9.53;6.20;;;;;;;18.34;81.00;101376.94;5082971;29;20040;-79
2022/09/04 03:37:31;;;;;;;6.93;5.53;;;;;;;18.33;80.41;101366.41;5140995;29;20229;-78
2022/09/04 03:40:08;;;;;;;6.88;5.32;;;;;;;18.24;82.67;101391.91;5149622;28;20031;-79
2022/09/04 03:43:24;;;;;;;6.80;5.23;;;;;;;18.24;82.02;101381.28;5149139;28;20030;-80
2022/09/04 03:46:22;;;;;;;6.37;5.67;;;;;;;18.38;80.73;101377.47;5135361;28;20083;-80
2022/09/04 03:49:17;;;;;;;7.10;5.57;;;;;;;18.42;81.04;101386.00;5129546;29;20098;-80
2022/09/04 03:52:14;;;;;;;9.20;6.00;;;;;;;18.31;81.83;101393.06;5129828;29;20117;-80
2022/09/04 03:55:07;;;;;;;9.30;5.27;;;;;;;18.34;81.66;101398.13;5133865;28;20039;-80
2022/09/04 03:57:57;;;;;;;6.27;5.13;;;;;;;18.13;83.44;101398.94;5128814;29;20028;-80
2022/09/04 04:00:40;;;;;;;7.73;5.60;;;;;;;18.14;83.40;101390.03;5144230;29;20042;-81
2022/09/04 04:03:31;;;;;;;9.53;5.83;;;;;;;18.20;82.88;101395.81;5148767;28;20479;-80
2022/09/04 04:06:26;;;;;;;7.30;5.43;;;;;;;18.24;81.65;101390.09;5146927;28;20561;-80
2022/09/04 04:09:18;;;;;;;6.00;5.18;;;;;;;18.14;83.75;101408.59;5148601;28;20035;-79
2022/09/04 04:12:14;;;;;;;7.10;6.10;;;;;;;18.26;82.80;101404.06;5144875;29;20562;-81
2022/09/04 04:15:08;;;;;;;7.07;5.83;;;;;;;18.11;84.03;101408.81;5148703;29;20039;-80
2022/09/04 04:18:21;;;;;;;6.90;6.03;;;;;;;18.24;82.47;101402.50;5146525;29;20039;-80
2022/09/04 04:21:18;;;;;;;6.97;5.43;;;;;;;18.26;82.17;101413.81;5148516;29;20031;-80
2022/09/04 04:24:46;;;;;;;7.93;5.73;;;;;;;18.30;82.29;101433.81;5135138;28;20039;-80
2022/09/04 04:27:36;;;;;;;6.50;5.00;;;;;;;18.19;83.00;101426.75;5136280;28;20141;-80
2022/09/04 04:30:13;;;;;;;6.77;6.10;;;;;;;18.15;83.78;101430.66;5144316;28;20118;-81
2022/09/04 04:33:00;;;;;;;6.87;6.17;;;;;;;17.97;85.53;101430.31;5148378;28;20066;-80
2022/09/04 04:35:54;;;;;;;6.70;5.97;;;;;;;17.80;88.29;101429.06;5146375;28;20081;-80
2022/09/04 04:38:33;;;;;;;6.93;6.28;;;;;;;17.86;87.26;101432.03;5146236;28;20035;-80
2022/09/04 04:41:20;;;;;;;8.47;6.23;;;;;;;17.70;89.44;101431.63;5147803;28;20023;-80
2022/09/04 04:44:07;;;;;;;6.83;6.13;;;;;;;17.64;89.99;101423.22;5130982;29;20056;-80
2022/09/04 04:47:06;;;;;;;6.43;5.83;;;;;;;17.89;88.19;101431.78;5147105;28;20062;-80
2022/09/04 04:50:02;;;;;;;7.87;5.83;;;;;;;17.95;87.13;101434.91;5147937;28;20086;-80
2022/09/04 04:52:50;;;;;;;6.93;6.23;;;;;;;17.69;90.01;101435.22;5147282;28;20232;-80
2022/09/04 04:55:37;;;;;;;6.47;5.87;;;;;;;17.76;89.16;101439.06;5146931;28;20039;-79
2022/09/04 04:58:26;;;;;;;7.40;6.70;;;;;;;17.46;92.69;101432.63;5145507;29;20042;-80
2022/09/04 05:01:14;;;;;;;7.23;6.10;;;;;;;17.41;92.72;101441.78;5146024;28;20045;-81
2022/09/04 05:04:17;;;;;;;10.03;7.03;;;;;;;17.57;92.12;101451.16;5147751;29;20039;-80
2022/09/04 05:07:09;;;;;;;8.07;7.07;;;;;;;17.47;94.91;101450.22;5148075;28;20138;-81
2022/09/04 05:09:49;;;;;;;7.73;6.87;;;;;;;17.34;96.69;101459.13;5148422;28;20067;-79
2022/09/04 05:12:46;;;;;;;8.90;6.60;;;;;;;17.52;94.81;101458.63;5150320;28;20106;-80
2022/09/04 05:15:23;;;;;;;8.67;7.10;;;;;;;17.44;95.94;101464.53;5132400;29;20035;-80
2022/09/04 05:18:00;;;;;;;7.67;6.63;;;;;;;17.48;95.22;101468.63;5145617;29;20027;-80
2022/09/04 05:20:52;;;;;;;8.43;6.60;;;;;;;17.40;96.14;101474.50;5147418;28;20114;-80
2022/09/04 05:23:49;;;;;;;11.97;6.47;;;;;;;17.60;93.17;101474.75;5146422;29;20740;-80
2022/09/04 05:26:32;;;;;;;9.27;7.17;;;;;;;17.51;95.17;101481.59;5147425;28;20458;-79
2022/09/04 05:29:22;;;;;;;6.93;6.23;;;;;;;17.55;94.43;101487.50;5146153;28;20043;-79
2022/09/04 05:32:04;;;;;;;6.93;6.23;;;;;;;17.51;94.94;101488.69;5146789;28;20042;-80
2022/09/04 05:35:16;;;;;;;7.53;6.60;;;;;;;17.61;94.79;101489.66;5146151;29;20137;-80
2022/09/04 05:38:14;;;;;;;8.60;6.77;;;;;;;17.72;94.13;101495.91;5134688;29;20465;-80
2022/09/04 05:41:03;;;;;;;8.23;7.47;;;;;;;17.77;93.56;101496.38;5145637;29;20033;-80
2022/09/04 05:43:53;;;;;;;8.23;7.43;;;;;;;17.81;93.71;101505.75;5147556;28;20482;-80
2022/09/04 05:46:43;;;;;;;10.90;7.30;;;;;;;17.77;92.67;101493.72;5144677;29;20388;-79
2022/09/04 05:49:33;;;;;;;8.40;7.30;;;;;;;17.62;96.29;101504.59;5132659;29;20735;-80
2022/09/04 05:52:10;;;;;;;9.97;8.33;;;;;;;17.62;96.83;101515.19;5147452;29;20176;-79
2022/09/04 05:55:10;;;;;;;9.50;8.50;;;;;;;17.79;94.97;101515.63;5147263;29;20054;-80
2022/09/04 05:58:04;;;;;;;9.27;7.80;;;;;;;18.01;92.51;101524.53;5145470;28;20065;-81
2022/09/04 06:00:44;;;;;;;9.83;7.07;;;;;;;17.99;93.53;101526.44;5146263;28;20036;-80
2022/09/04 06:03:53;;;;;;;8.80;7.90;;;;;;;18.00;92.63;101530.75;5142988;29;20102;-80
2022/09/04 06:06:41;;;;;;;10.03;7.63;;;;;;;17.90;94.55;101518.28;5147034;29;20062;-80
2022/09/04 06:09:47;;;;;;;9.53;7.87;;;;;;;18.04;93.24;101531.38;5146044;28;20398;-80
2022/09/04 06:12:31;;;;;;;9.07;7.80;;;;;;;17.86;95.40;101535.38;5145629;28;20075;-80
2022/09/04 06:15:22;;;;;;;10.03;8.53;;;;;;;17.99;92.82;101518.50;5146517;29;20043;-80
2022/09/04 06:18:14;;;;;;;12.37;8.37;;;;;;;18.01;93.88;101527.16;5147181;28;20027;-80
2022/09/04 06:20:54;;;;;;;9.90;8.17;;;;;;;17.92;95.56;101533.19;5131895;28;20043;-80
2022/09/04 06:24:03;;;;;;;10.60;8.00;;;;;;;18.07;93.54;101539.06;5148512;28;20031;-80
2022/09/04 06:26:44;;;;;;;10.57;8.97;;;;;;;18.01;94.85;101540.41;5150672;28;20039;-80
2022/09/04 06:29:31;;;;;;;9.67;8.07;;;;;;;18.11;94.10;101532.56;5150369;28;20028;-80
2022/09/04 06:32:33;;;;;;;11.17;9.20;;;;;;;18.19;93.28;101538.09;5149385;28;20070;-80
2022/09/04 06:35:22;;;;;;;9.07;7.80;;;;;;;18.22;94.11;101544.97;5150927;28;20035;-80
2022/09/04 06:38:03;;;;;;;9.63;8.43;;;;;;;18.27;94.12;101542.78;5149982;28;20486;-80
2022/09/04 06:40:55;;;;;;;10.40;8.60;;;;;;;18.35;92.89;101547.44;5148148;28;20039;-80
2022/09/04 06:43:47;;;;;;;11.10;9.10;;;;;;;18.35;94.08;101548.28;5149291;28;20040;-80
2022/09/04 06:46:33;;;;;;;11.07;9.30;;;;;;;18.21;95.52;101543.28;5147267;28;20075;-80
2022/09/04 06:49:11;;;;;;;10.47;8.30;;;;;;;18.33;94.90;101550.22;5148305;28;20595;-80
2022/09/04 06:51:55;;;;;;;12.50;8.93;;;;;;;18.47;94.16;101550.88;5150290;28;20028;-80
2022/09/04 06:54:51;;;;;;;11.93;8.50;;;;;;;18.54;93.54;101552.06;5150718;28;20090;-79
2022/09/04 06:57:57;;;;;;;10.87;8.53;;;;;;;18.56;94.16;101544.84;5149892;28;20042;-79
2022/09/04 07:00:46;;;;;;;11.30;9.93;;;;;;;18.54;95.21;101551.22;5148647;28;20045;-79
2022/09/04 07:03:52;;;;;;;10.13;9.20;;;;;;;18.71;92.29;101548.00;5148076;28;20047;-79
2022/09/04 07:06:46;;;;;;;11.87;9.80;;;;;;;18.79;92.15;101547.38;5149834;28;20042;-79
2022/09/04 07:09:24;;;;;;;15.67;9.87;;;;;;;18.82;92.25;101547.09;5149282;29;20454;-79
2022/09/04 07:12:08;;;;;;;11.33;9.97;;;;;;;18.81;94.57;101553.41;5149593;28;20035;-81
2022/09/04 07:15:08;;;;;;;11.63;9.40;;;;;;;18.92;92.99;101564.91;5149026;29;20035;-80
2022/09/04 07:18:11;;;;;;;11.37;8.37;;;;;;;19.05;92.55;101570.00;5149475;28;20550;-79
2022/09/04 07:21:02;;;;;;;13.80;10.30;;;;;;;19.21;92.12;101569.59;5149653;28;20810;-81
2022/09/04 07:23:47;;;;;;;11.80;10.60;;;;;;;19.25;91.07;101560.41;5149177;28;20320;-81
2022/09/04 07:26:27;;;;;;;10.77;9.60;;;;;;;19.43;89.50;101571.22;5148835;29;20139;-80
2022/09/04 07:29:09;;;;;;;12.40;10.27;;;;;;;19.63;88.76;101573.13;5147785;29;20441;-76
2022/09/04 07:31:58;;;;;;;15.67;10.30;;;;;;;19.72;87.70;101559.03;5148649;29;20137;-80
2022/09/04 07:35:00;;;;;;;11.87;10.77;;;;;;;19.95;86.62;101575.59;5149326;28;20384;-79
2022/09/04 07:37:57;;;;;;;12.13;10.00;;;;;;;20.17;85.30;101580.84;5145892;29;20545;-80
2022/09/04 07:40:31;;;;;;;12.80;9.60;;;;;;;20.37;83.71;101588.88;5148469;28;20019;-78
2022/09/04 07:43:16;;;;;;;;;;;;;;;20.80;81.65;101595.56;5148545;28;20028;-79
2022/09/04 07:45:57;;;;;;;13.00;10.75;;;;;;;20.64;80.59;101582.00;5147853;28;19918;-78
2022/09/04 07:48:35;;;;;;;13.43;10.27;;;;;;;20.79;80.17;101591.22;5148899;28;20434;-72
2022/09/04 07:51:16;;;;;;;16.50;11.53;;;;;;;20.98;80.08;101600.19;5148678;28;20027;-74
2022/09/04 07:54:06;;;;;;;15.20;11.43;;;;;;;20.99;79.24;101607.22;5149325;28;20920;-74
2022/09/04 07:56:41;;;;;;;18.33;11.67;;;;;;;21.78;76.91;101608.78;5143805;29;20073;-75
2022/09/04 07:59:50;;;;;;;13.65;9.73;;;;;;;22.65;74.02;101599.56;5147445;28;20034;-75
2022/09/04 08:02:44;;;;;;;13.10;10.18;;;;;;;23.87;69.42;101602.44;5128260;29;20039;-75
2022/09/04 08:05:30;;;;;;;13.75;10.43;;;;;;;24.15;66.86;101597.69;5144080;29;20023;-75
2022/09/04 08:08:16;;;;;;;12.00;9.45;;;;;;;24.99;65.17;101595.91;5147874;28;20163;-74
2022/09/04 08:11:25;;;;;;;12.75;9.15;;;;;;;25.79;62.84;101610.41;5149289;28;20035;-73
2022/09/04 08:14:03;;;;;;;11.25;9.50;;;;;;;26.22;57.84;101613.53;5146661;28;20174;-73
2022/09/04 08:16:49;;;;;;;8.63;7.68;;;;;;;27.04;55.66;101606.84;5146902;28;20039;-73
2022/09/04 08:19:23;;;;;;;14.07;9.88;;;;;;;26.96;55.09;101613.13;5147263;29;20031;-71
2022/09/04 08:21:55;;;;;;;11.13;8.25;;;;;;;27.69;52.64;101611.66;5147815;29;20031;-73
2022/09/04 08:24:42;;;;;;;15.68;8.75;;;;;;;28.08;54.45;101616.88;5146688;28;20063;-74
2022/09/04 08:27:26;;;;;;;12.55;7.38;;;;;;;28.63;52.01;101616.38;5143711;29;20063;-74
2022/09/04 08:30:09;;;;;;;10.73;9.10;;;;;;;28.78;50.81;101618.16;5135555;29;20043;-74
2022/09/04 08:32:53;;;;;;;13.55;8.73;;;;;;;28.40;49.05;101628.19;5128264;29;20032;-76
2022/09/04 08:35:34;;;;;;;13.27;8.68;;;;;;;28.69;49.90;101631.78;5130307;29;20040;-75
2022/09/04 08:38:35;;;;;;;10.38;7.75;;;;;;;29.94;48.67;101637.50;5134189;28;20067;-74
2022/09/04 08:41:26;;;;;;;10.98;8.35;;;;;;;30.40;47.19;101624.31;5134002;29;20482;-74
2022/09/04 08:44:12;;;;;;;7.32;6.45;;;;;;;30.81;43.88;101637.00;5129135;29;20067;-76
2022/09/04 08:47:10;;;;;;;7.40;6.53;;;;;;;31.18;44.12;101634.66;5128961;29;20039;-74
2022/09/04 08:49:52;;;;;;;9.00;7.82;;;;;;;30.88;41.82;101641.38;5130259;29;20495;-75
2022/09/04 08:53:01;;;;;;;7.10;6.32;;;;;;;31.48;42.92;101644.19;5132731;29;20170;-77
2022/09/04 08:55:44;;;;;;;8.70;6.22;;;;;;;31.84;41.74;101642.75;5141776;28;20461;-79
2022/09/04 08:58:28;;;;;;;;;;;;;;;32.85;42.29;101653.97;5148217;28;20031;-76
2022/09/04 09:01:26;;;;;;;7.30;5.70;;;;;;;31.95;41.30;101646.66;5143196;28;20341;-77
2022/09/04 09:04:00;;;;;;;8.45;5.10;;;;;;;31.93;39.26;101648.75;5147594;28;20326;-77
2022/09/04 09:06:43;;;;;;;8.07;5.20;;;;;;;33.10;37.49;101653.13;5146689;29;20365;-74
2022/09/04 09:09:35;;;;;;;7.07;5.35;;;;;;;33.70;38.43;101653.53;5135253;28;20162;-75
2022/09/04 09:12:42;;;;;;;7.18;4.80;;;;;;;34.13;37.27;101648.09;5148145;28;20035;-75
2022/09/04 09:15:34;;;;;;;7.85;4.38;;;;;;;34.38;34.75;101649.84;5140147;28;20028;-75
2022/09/04 09:18:16;;;;;;;4.93;3.70;;;;;;;34.28;34.75;101648.53;5137137;28;20035;-75
2022/09/04 09:20:55;;;;;;;4.50;3.60;;;;;;;34.75;34.42;101646.13;5147951;28;20034;-74
2022/09/04 09:24:13;;;;;;;8.05;3.97;;;;;;;34.97;35.12;101648.22;5147877;28;20042;-75
2022/09/04 09:27:15;;;;;;;4.82;3.67;;;;;;;34.38;34.37;101641.69;5148217;28;20042;-74
2022/09/04 09:29:49;;;;;;;7.22;3.20;;;;;;;34.41;33.61;101638.50;5126303;29;20034;-76
2022/09/04 09:32:49;;;;;;;7.03;3.03;;;;;;;35.63;32.88;101625.34;5127664;29;20031;-73
2022/09/04 09:36:00;;;;;;;4.40;3.70;;;;;;;35.48;33.96;101634.91;5131918;28;20033;-71
2022/09/04 09:38:33;;;;;;;4.88;3.20;;;;;;;35.69;31.57;101635.28;5146861;28;20035;-71
2022/09/04 09:41:11;;;;;;;5.43;2.67;;;;;;;35.90;31.56;101641.16;5147114;28;20122;-72
2022/09/04 09:44:33;;;;;;;7.20;2.58;;;;;;;36.23;31.57;101638.69;5145483;29;20039;-73
2022/09/04 09:47:44;;;;;;;4.85;2.30;;;;;;;37.02;30.57;101632.53;5113060;29;20115;-72
2022/09/04 09:50:21;;;;;;;3.83;2.45;;;;;;;36.13;29.84;101644.81;5123939;29;20127;-72
2022/09/04 09:53:30;;;;;;;3.35;2.60;;;;;;;37.06;29.68;101647.31;5139736;28;20066;-73
2022/09/04 09:56:36;;;;;;;6.30;3.10;;;;;;;36.68;30.72;101656.06;5135837;28;20687;-73
2022/09/04 09:59:44;;;;;;;3.08;2.40;;;;;;;37.63;29.58;101647.19;5140703;28;20041;-73
2022/09/04 10:02:24;;;;;;;5.28;2.38;;;;;;;36.80;28.36;101655.16;5139502;28;20078;-73
2022/09/04 10:05:20;;;;;;;4.05;2.72;;;;;;;36.91;29.69;101647.94;5140458;28;20453;-74
2022/09/04 10:08:27;;;;;;;3.28;1.90;;;;;;;37.78;28.63;101651.16;5140819;28;20375;-76
2022/09/04 10:11:22;;;;;;;6.13;2.05;;;;;;;37.47;28.44;101654.38;5140632;29;20035;-76
2022/09/04 10:14:27;;;;;;;6.15;3.42;;;;;;;37.02;28.51;101649.72;5139876;28;20177;-80
2022/09/04 10:17:26;;;;;;;4.85;1.73;;;;;;;37.15;28.42;101653.97;5140335;28;20047;-85
2022/09/04 10:20:22;;;;;;;2.80;1.70;;;;;;;37.46;28.34;101652.75;5140502;28;20070;-82
2022/09/04 10:23:31;;;;;;;4.30;1.60;;;;;;;36.84;28.45;101658.19;5143492;28;20039;-84
2022/09/04 10:26:38;;;;;;;3.75;1.50;;;;;;;36.84;27.55;101650.84;5145948;28;20300;-90
2022/09/04 10:29:29;;;;;;;3.70;1.27;;;;;;;36.15;29.19;101652.75;5138065;28;20051;-72
2022/09/04 10:32:23;;;;;;;1.92;1.20;;;;;;;35.83;28.43;101654.09;5140908;28;20600;-77
2022/09/04 10:35:08;;;;;;;2.67;1.35;;;;;;;36.30;27.84;101657.66;5139336;28;20039;-73
2022/09/04 10:37:54;;;;;;;3.63;1.48;;;;;;;35.92;28.22;101657.25;5141355;28;20030;-75
2022/09/04 10:40:36;;;;;;;2.15;1.27;;;;;;;36.18;27.09;101658.53;5139027;28;20035;-74
2022/09/04 10:43:26;;;;;;;3.27;1.20;;;;;;;36.63;26.33;101655.97;5153255;28;20091;-72
2022/09/04 10:46:10;;;;;;;3.00;1.40;;;;;;;36.43;27.16;101657.31;5136872;28;20298;-73
2022/09/04 10:48:44;;;;;;;2.17;1.23;;;;;;;34.80;28.18;101659.00;5139360;28;20039;-76
2022/09/04 10:51:32;;;;;;;6.50;1.40;;;;;;;36.13;27.13;101663.06;5140595;28;20070;-77
2022/09/04 10:54:15;;;;;;;4.63;1.33;;;;;;;35.69;27.73;101651.63;5140659;28;20478;-78
2022/09/04 10:56:59;;;;;;;2.55;1.23;;;;;;;35.45;27.83;101643.53;5141697;29;20043;-79
2022/09/04 11:00:05;;;;;;;2.47;1.60;;;;;;;34.93;28.78;101655.22;5140345;28;20038;-83
2022/09/04 11:02:55;;;;;;;2.28;1.20;;;;;;;35.33;28.19;101627.25;5139673;29;20050;-76
2022/09/04 11:05:47;;;;;;;4.25;1.85;;;;;;;34.88;29.13;101651.31;5138823;28;20030;-77
2022/09/04 11:08:28;;;;;;;3.13;1.80;;;;;;;35.06;28.83;101649.53;5136282;28;20031;-77
2022/09/04 11:11:12;;;;;;;5.65;1.55;;;;;;;34.45;29.22;101638.84;5139270;29;20045;-77
2022/09/04 11:13:47;;;;;;;3.40;1.50;;;;;;;34.52;29.29;101640.41;5136206;29;20051;-81
2022/09/04 11:16:49;;;;;;;2.70;1.25;;;;;;;34.57;29.37;101650.56;5137799;28;20476;-84
2022/09/04 11:19:54;;;;;;;3.15;1.55;;;;;;;34.51;28.76;101654.22;5139269;29;20396;-77
2022/09/04 11:22:58;;;;;;;3.17;1.38;;;;;;;34.25;29.43;101648.16;5137705;29;20438;-78
2022/09/04 11:26:14;;;;;;;4.18;1.70;;;;;;;34.04;29.57;101645.72;5137224;29;20042;-78
2022/09/04 11:29:11;;;;;;;3.00;1.65;;;;;;;34.06;27.91;101647.38;5122853;28;20062;-82
2022/09/04 11:32:14;;;;;;;4.20;1.73;;;;;;;33.03;29.01;101636.91;5138944;28;20036;-81
2022/09/04 11:35:22;;;;;;;2.97;1.58;;;;;;;33.75;28.12;101647.38;5138355;29;20062;-78
2022/09/04 11:38:42;;;;;;;4.03;1.80;;;;;;;33.69;27.61;101643.69;5136933;28;20036;-72
2022/09/04 11:41:35;;;;;;;5.18;2.08;;;;;;;33.23;27.83;101641.31;5137617;29;20479;-76
2022/09/04 11:44:45;;;;;;;7.85;2.15;;;;;;;33.29;28.10;101640.41;5136668;29;20541;-84
2022/09/04 11:47:41;;;;;;;3.17;1.75;;;;;;;33.17;27.63;101634.91;5137553;29;20035;-77
2022/09/04 11:50:39;;;;;;;8.05;2.50;;;;;;;33.22;26.77;101645.06;5137864;28;20036;-77
2022/09/04 11:53:33;;;;;;;2.97;1.48;;;;;;;33.36;27.12;101636.75;5137679;28;20064;-79
2022/09/04 11:56:13;;;;;;;5.68;1.90;;;;;;;33.37;27.39;101642.00;5138500;29;21698;-76
2022/09/04 11:58:54;;;;;;;3.65;1.90;;;;;;;32.63;28.41;101648.13;5136430;29;20130;-77
2022/09/04 12:01:51;;;;;;;4.38;1.90;;;;;;;33.48;28.06;101637.66;5135832;28;20043;-77
2022/09/04 12:04:33;;;;;;;4.93;2.25;;;;;;;33.48;28.38;101642.28;5136507;28;20035;-77
2022/09/04 12:07:30;;;;;;;4.15;1.90;;;;;;;33.16;28.04;101643.28;5136453;28;20031;-78
2022/09/04 12:10:33;;;;;;;4.93;2.15;;;;;;;32.91;29.21;101638.69;5137085;29;20042;-78
2022/09/04 12:13:36;;;;;;;4.45;1.65;;;;;;;33.46;28.13;101644.41;5136612;28;20055;-78
2022/09/04 12:16:17;;;;;;;4.80;1.95;;;;;;;32.69;29.24;101647.25;5133405;29;20075;-77
2022/09/04 12:19:14;;;;;;;2.67;1.60;;;;;;;32.58;29.26;101648.78;5136734;28;20036;-77
2022/09/04 12:22:13;;;;;;;3.53;1.80;;;;;;;32.69;28.76;101658.09;5136594;28;20145;-77
2022/09/04 12:25:18;;;;;;;4.82;2.00;;;;;;;32.45;29.15;101655.94;5138033;29;20035;-77
2022/09/04 12:28:14;;;;;;;7.18;2.05;;;;;;;32.62;29.05;101650.03;5138067;28;20035;-77
2022/09/04 12:30:51;;;;;;;5.57;1.88;;;;;;;32.87;28.78;101651.06;5137230;29;20043;-77
2022/09/04 12:33:50;;;;;;;5.00;1.83;;;;;;;32.98;28.72;101658.44;5136934;28;20499;-77
2022/09/04 12:36:24;;;;;;;4.22;1.38;;;;;;;32.71;28.70;101650.56;5137648;29;20752;-76
2022/09/04 12:39:31;;;;;;;5.03;1.45;;;;;;;33.01;28.58;101655.28;5135535;29;20035;-77
2022/09/04 12:42:22;;;;;;;3.10;1.55;;;;;;;32.82;28.44;101655.25;5135655;28;20714;-77
2022/09/04 12:45:31;;;;;;;4.47;1.40;;;;;;;32.36;29.20;101655.38;5133924;28;20039;-77
2022/09/04 12:48:26;;;;;;;5.60;1.40;;;;;;;32.57;28.53;101653.38;5135892;28;20035;-77
2022/09/04 12:51:15;;;;;;;7.22;1.30;;;;;;;32.14;28.69;101646.78;5136173;28;20046;-77
2022/09/04 12:53:49;;;;;;;6.32;1.67;;;;;;;31.85;27.85;101647.16;5134489;29;20552;-76
2022/09/04 12:56:29;;;;;;;4.72;1.27;;;;;;;32.08;27.11;101658.50;5136553;29;20031;-75
2022/09/04 12:59:25;;;;;;;3.10;1.40;;;;;;;32.10;27.60;101657.22;5134758;29;20039;-74
2022/09/04 13:02:23;;;;;;;7.88;1.63;;;;;;;31.44;28.25;101651.88;5134088;29;20680;-74
2022/09/04 13:05:23;;;;;;;3.70;1.98;;;;;;;31.46;28.99;101652.50;5135325;29;20027;-74
2022/09/04 13:08:18;;;;;;;3.55;1.40;;;;;;;31.83;28.89;101649.25;5137010;28;20671;-74
2022/09/04 13:11:30;;;;;;;1.98;1.38;;;;;;;32.09;28.54;101661.00;5135370;28;20031;-73
2022/09/04 13:14:26;;;;;;;5.93;1.50;;;;;;;32.21;28.81;101663.84;5134744;29;20050;-74
2022/09/04 13:17:17;;;;;;;8.60;1.30;;;;;;;32.10;29.04;101664.53;5134362;28;20050;-75